sensor_id;sensor_type;location;lat;lon;timestamp;temperature;humidity
17599;DHT22;8918;52.092;5.232;2024-01-15T00:02:08;2.00;99.90
17599;DHT22;8918;52.092;5.232;2024-01-15T00:04:38;1.90;99.90
17599;DHT22;8918;52.092;5.232;2024-01-15T00:07:04;1.80;99.90
17599;DHT22;8918;52.092;5.232;2024-01-15T00:09:30;1.80;99.90
17599;DHT22;8918;52.092;5.232;2024-01-15T00:11:56;1.80;99.90
17599;DHT22;8918;52.092;5.232;2024-01-15T00:14:22;1.60;99.90
17599;DHT22;8918;52.092;5.232;2024-01-15T00:16:48;1.60;99.90
17599;DHT22;8918;52.092;5.232;2024-01-15T00:19:17;1.50;99.90
17599;DHT22;8918;52.092;5.232;2024-01-15T00:21:43;1.50;99.90
17599;DHT22;8918;52.092;5.232;2024-01-15T00:24:09;1.50;99.90
17599;DHT22;8918;52.092;5.232;2024-01-15T00:26:35;1.50;99.90
17599;DHT22;8918;52.092;5.232;2024-01-15T00:29:01;1.60;99.90
17599;DHT22;8918;52.092;5.232;2024-01-15T00:31:26;1.60;99.90
17599;DHT22;8918;52.092;5.232;2024-01-15T00:33:52;1.60;99.90
17599;DHT22;8918;52.092;5.232;2024-01-15T00:36:18;1.50;99.90
17599;DHT22;8918;52.092;5.232;2024-01-15T00:38:47;1.50;99.90
17599;DHT22;8918;52.092;5.232;2024-01-15T00:41:13;1.50;99.90
17599;DHT22;8918;52.092;5.232;2024-01-15T00:43:39;1.50;99.90
17599;DHT22;8918;52.092;5.232;2024-01-15T00:46:05;1.60;99.90
17599;DHT22;8918;52.092;5.232;2024-01-15T00:48:31;1.50;99.90
17599;DHT22;8918;52.092;5.232;2024-01-15T00:50:57;1.50;99.90
17599;DHT22;8918;52.092;5.232;2024-01-15T00:53:22;1.40;99.90
17599;DHT22;8918;52.092;5.232;2024-01-15T00:55:48;1.40;99.90
17599;DHT22;8918;52.092;5.232;2024-01-15T00:58:14;1.50;99.90
17599;DHT22;8918;52.092;5.232;2024-01-15T01:00:40;1.50;99.90
17599;DHT22;8918;52.092;5.232;2024-01-15T01:03:06;1.60;99.90
17599;DHT22;8918;52.092;5.232;2024-01-15T01:05:33;1.70;99.90
17599;DHT22;8918;52.092;5.232;2024-01-15T01:07:59;1.70;99.90
17599;DHT22;8918;52.092;5.232;2024-01-15T01:10:25;1.80;99.90
17599;DHT22;8918;52.092;5.232;2024-01-15T01:12:50;1.80;99.90
17599;DHT22;8918;52.092;5.232;2024-01-15T01:15:16;1.90;99.90
17599;DHT22;8918;52.092;5.232;2024-01-15T01:17:41;1.90;99.90
17599;DHT22;8918;52.092;5.232;2024-01-15T01:20:07;1.90;99.90
17599;DHT22;8918;52.092;5.232;2024-01-15T01:22:34;1.90;99.90
17599;DHT22;8918;52.092;5.232;2024-01-15T01:25:00;1.90;99.90
17599;DHT22;8918;52.092;5.232;2024-01-15T01:27:26;1.90;99.90
17599;DHT22;8918;52.092;5.232;2024-01-15T01:29:52;2.00;99.90
17599;DHT22;8918;52.092;5.232;2024-01-15T01:32:18;2.00;99.90
17599;DHT22;8918;52.092;5.232;2024-01-15T01:34:43;2.10;99.90
17599;DHT22;8918;52.092;5.232;2024-01-15T01:37:10;2.10;99.90
17599;DHT22;8918;52.092;5.232;2024-01-15T01:39:38;2.10;99.90
17599;DHT22;8918;52.092;5.232;2024-01-15T01:42:04;2.10;99.90
17599;DHT22;8918;52.092;5.232;2024-01-15T01:44:29;2.10;99.90
17599;DHT22;8918;52.092;5.232;2024-01-15T01:46:56;2.10;99.90
17599;DHT22;8918;52.092;5.232;2024-01-15T01:49:22;2.10;99.90
17599;DHT22;8918;52.092;5.232;2024-01-15T01:51:48;2.10;99.90
17599;DHT22;8918;52.092;5.232;2024-01-15T01:54:14;2.10;99.90
17599;DHT22;8918;52.092;5.232;2024-01-15T01:56:41;2.10;99.90
17599;DHT22;8918;52.092;5.232;2024-01-15T01:59:08;2.10;99.90
17599;DHT22;8918;52.092;5.232;2024-01-15T02:01:35;2.00;99.90
17599;DHT22;8918;52.092;5.232;2024-01-15T02:04:01;1.90;99.90
17599;DHT22;8918;52.092;5.232;2024-01-15T02:06:27;1.90;99.90
17599;DHT22;8918;52.092;5.232;2024-01-15T02:08:53;1.90;99.90
17599;DHT22;8918;52.092;5.232;2024-01-15T02:11:19;1.90;99.90
17599;DHT22;8918;52.092;5.232;2024-01-15T02:13:44;1.90;99.90
17599;DHT22;8918;52.092;5.232;2024-01-15T02:16:10;2.00;99.90
17599;DHT22;8918;52.092;5.232;2024-01-15T02:18:42;1.90;99.90
17599;DHT22;8918;52.092;5.232;2024-01-15T02:21:09;1.90;99.90
17599;DHT22;8918;52.092;5.232;2024-01-15T02:23:35;1.90;99.90
17599;DHT22;8918;52.092;5.232;2024-01-15T02:26:01;1.90;99.90
17599;DHT22;8918;52.092;5.232;2024-01-15T02:28:27;1.90;99.90
17599;DHT22;8918;52.092;5.232;2024-01-15T02:30:52;1.90;99.90
17599;DHT22;8918;52.092;5.232;2024-01-15T02:33:18;1.90;99.90
17599;DHT22;8918;52.092;5.232;2024-01-15T02:35:44;1.80;99.90
17599;DHT22;8918;52.092;5.232;2024-01-15T02:38:11;1.80;99.90
17599;DHT22;8918;52.092;5.232;2024-01-15T02:40:38;1.80;99.90
17599;DHT22;8918;52.092;5.232;2024-01-15T02:43:05;1.80;99.90
17599;DHT22;8918;52.092;5.232;2024-01-15T02:45:30;1.80;99.90
17599;DHT22;8918;52.092;5.232;2024-01-15T02:47:56;1.80;99.90
17599;DHT22;8918;52.092;5.232;2024-01-15T02:50:22;1.90;99.90
17599;DHT22;8918;52.092;5.232;2024-01-15T02:52:47;2.00;99.90
17599;DHT22;8918;52.092;5.232;2024-01-15T02:55:13;2.00;99.90
17599;DHT22;8918;52.092;5.232;2024-01-15T02:57:38;2.00;99.90
17599;DHT22;8918;52.092;5.232;2024-01-15T03:00:04;2.00;99.90
17599;DHT22;8918;52.092;5.232;2024-01-15T03:02:30;1.90;99.90
17599;DHT22;8918;52.092;5.232;2024-01-15T03:04:59;1.90;99.90
17599;DHT22;8918;52.092;5.232;2024-01-15T03:07:25;1.80;99.90
17599;DHT22;8918;52.092;5.232;2024-01-15T03:09:50;1.80;99.90
17599;DHT22;8918;52.092;5.232;2024-01-15T03:12:16;1.70;99.90
17599;DHT22;8918;52.092;5.232;2024-01-15T03:14:42;1.70;99.90
17599;DHT22;8918;52.092;5.232;2024-01-15T03:17:07;1.70;99.90
17599;DHT22;8918;52.092;5.232;2024-01-15T03:19:35;1.70;99.90
17599;DHT22;8918;52.092;5.232;2024-01-15T03:22:01;1.60;99.90
17599;DHT22;8918;52.092;5.232;2024-01-15T03:24:28;1.60;99.90
17599;DHT22;8918;52.092;5.232;2024-01-15T03:26:53;1.60;99.90
17599;DHT22;8918;52.092;5.232;2024-01-15T03:29:19;1.50;99.90
17599;DHT22;8918;52.092;5.232;2024-01-15T03:31:44;1.50;99.90
17599;DHT22;8918;52.092;5.232;2024-01-15T03:34:11;1.50;99.90
17599;DHT22;8918;52.092;5.232;2024-01-15T03:36:36;1.60;99.90
17599;DHT22;8918;52.092;5.232;2024-01-15T03:39:02;1.60;99.90
17599;DHT22;8918;52.092;5.232;2024-01-15T03:41:28;1.60;99.90
17599;DHT22;8918;52.092;5.232;2024-01-15T03:43:53;1.70;99.90
17599;DHT22;8918;52.092;5.232;2024-01-15T03:46:19;1.80;99.90
17599;DHT22;8918;52.092;5.232;2024-01-15T03:48:44;1.90;99.90
17599;DHT22;8918;52.092;5.232;2024-01-15T03:51:10;1.90;99.90
17599;DHT22;8918;52.092;5.232;2024-01-15T03:53:37;1.90;99.90
17599;DHT22;8918;52.092;5.232;2024-01-15T03:56:03;1.90;99.90
17599;DHT22;8918;52.092;5.232;2024-01-15T03:58:29;1.90;99.90
17599;DHT22;8918;52.092;5.232;2024-01-15T04:00:54;2.00;99.90
17599;DHT22;8918;52.092;5.232;2024-01-15T04:03:20;2.00;99.90
17599;DHT22;8918;52.092;5.232;2024-01-15T04:05:45;2.00;99.90
17599;DHT22;8918;52.092;5.232;2024-01-15T04:08:11;2.00;99.90
17599;DHT22;8918;52.092;5.232;2024-01-15T04:10:37;2.00;99.90
17599;DHT22;8918;52.092;5.232;2024-01-15T04:13:02;2.00;99.90
17599;DHT22;8918;52.092;5.232;2024-01-15T04:15:29;1.90;99.90
17599;DHT22;8918;52.092;5.232;2024-01-15T04:17:54;1.90;99.90
17599;DHT22;8918;52.092;5.232;2024-01-15T04:20:20;1.90;99.90
17599;DHT22;8918;52.092;5.232;2024-01-15T04:22:46;1.80;99.90
17599;DHT22;8918;52.092;5.232;2024-01-15T04:25:11;1.80;99.90
17599;DHT22;8918;52.092;5.232;2024-01-15T04:27:37;1.90;99.90
17599;DHT22;8918;52.092;5.232;2024-01-15T04:30:03;1.80;99.90
17599;DHT22;8918;52.092;5.232;2024-01-15T04:32:28;1.80;99.90
17599;DHT22;8918;52.092;5.232;2024-01-15T04:34:55;1.70;99.90
17599;DHT22;8918;52.092;5.232;2024-01-15T04:37:20;1.70;99.90
17599;DHT22;8918;52.092;5.232;2024-01-15T04:39:46;1.70;99.90
17599;DHT22;8918;52.092;5.232;2024-01-15T04:42:12;1.60;99.90
17599;DHT22;8918;52.092;5.232;2024-01-15T04:44:37;1.50;99.90
17599;DHT22;8918;52.092;5.232;2024-01-15T04:47:03;1.50;99.90
17599;DHT22;8918;52.092;5.232;2024-01-15T04:49:29;1.50;99.90
17599;DHT22;8918;52.092;5.232;2024-01-15T04:51:55;1.50;99.90
17599;DHT22;8918;52.092;5.232;2024-01-15T04:54:21;1.50;99.90
17599;DHT22;8918;52.092;5.232;2024-01-15T04:56:46;1.40;99.90
17599;DHT22;8918;52.092;5.232;2024-01-15T04:59:13;1.50;99.90
17599;DHT22;8918;52.092;5.232;2024-01-15T05:01:40;1.60;99.90
17599;DHT22;8918;52.092;5.232;2024-01-15T05:04:05;1.60;99.90
17599;DHT22;8918;52.092;5.232;2024-01-15T05:06:31;1.70;99.90
17599;DHT22;8918;52.092;5.232;2024-01-15T05:08:57;1.70;99.90
17599;DHT22;8918;52.092;5.232;2024-01-15T05:11:22;1.80;99.90
17599;DHT22;8918;52.092;5.232;2024-01-15T05:13:48;1.90;99.90
17599;DHT22;8918;52.092;5.232;2024-01-15T05:16:14;1.80;99.90
17599;DHT22;8918;52.092;5.232;2024-01-15T05:18:39;1.80;99.90
17599;DHT22;8918;52.092;5.232;2024-01-15T05:21:05;1.70;99.90
17599;DHT22;8918;52.092;5.232;2024-01-15T05:23:34;1.70;99.90
17599;DHT22;8918;52.092;5.232;2024-01-15T05:26:00;1.60;99.90
17599;DHT22;8918;52.092;5.232;2024-01-15T05:28:25;1.60;99.90
17599;DHT22;8918;52.092;5.232;2024-01-15T05:30:51;1.60;99.90
17599;DHT22;8918;52.092;5.232;2024-01-15T05:33:17;1.50;99.90
17599;DHT22;8918;52.092;5.232;2024-01-15T05:35:43;1.50;99.90
17599;DHT22;8918;52.092;5.232;2024-01-15T05:38:08;1.50;99.90
17599;DHT22;8918;52.092;5.232;2024-01-15T05:40:34;1.50;99.90
17599;DHT22;8918;52.092;5.232;2024-01-15T05:43:00;1.50;99.90
17599;DHT22;8918;52.092;5.232;2024-01-15T05:45:30;1.60;99.90
17599;DHT22;8918;52.092;5.232;2024-01-15T05:47:55;1.70;99.90
17599;DHT22;8918;52.092;5.232;2024-01-15T05:50:22;1.70;99.90
17599;DHT22;8918;52.092;5.232;2024-01-15T05:52:48;1.70;99.90
17599;DHT22;8918;52.092;5.232;2024-01-15T05:55:13;1.80;99.90
17599;DHT22;8918;52.092;5.232;2024-01-15T05:57:39;1.80;99.90
17599;DHT22;8918;52.092;5.232;2024-01-15T06:00:05;1.80;99.90
17599;DHT22;8918;52.092;5.232;2024-01-15T06:02:31;1.80;99.90
17599;DHT22;8918;52.092;5.232;2024-01-15T06:04:57;1.80;99.90
17599;DHT22;8918;52.092;5.232;2024-01-15T06:07:22;1.80;99.90
17599;DHT22;8918;52.092;5.232;2024-01-15T06:09:48;1.80;99.90
17599;DHT22;8918;52.092;5.232;2024-01-15T06:12:14;1.70;99.90
17599;DHT22;8918;52.092;5.232;2024-01-15T06:14:39;1.70;99.90
17599;DHT22;8918;52.092;5.232;2024-01-15T06:17:06;1.60;99.90
17599;DHT22;8918;52.092;5.232;2024-01-15T06:19:32;1.60;99.90
17599;DHT22;8918;52.092;5.232;2024-01-15T06:21:58;1.60;99.90
17599;DHT22;8918;52.092;5.232;2024-01-15T06:24:23;1.50;99.90
17599;DHT22;8918;52.092;5.232;2024-01-15T06:26:49;1.50;99.90
17599;DHT22;8918;52.092;5.232;2024-01-15T06:29:14;1.40;99.90
17599;DHT22;8918;52.092;5.232;2024-01-15T06:31:40;1.40;99.90
17599;DHT22;8918;52.092;5.232;2024-01-15T06:34:06;1.40;99.90
17599;DHT22;8918;52.092;5.232;2024-01-15T06:36:31;1.40;99.90
17599;DHT22;8918;52.092;5.232;2024-01-15T06:38:57;1.30;99.90
17599;DHT22;8918;52.092;5.232;2024-01-15T06:41:22;1.30;99.90
17599;DHT22;8918;52.092;5.232;2024-01-15T06:43:48;1.30;99.90
17599;DHT22;8918;52.092;5.232;2024-01-15T06:46:20;1.30;99.90
17599;DHT22;8918;52.092;5.232;2024-01-15T06:48:46;1.40;99.90
17599;DHT22;8918;52.092;5.232;2024-01-15T06:51:13;1.50;99.90
17599;DHT22;8918;52.092;5.232;2024-01-15T06:53:38;1.40;99.90
17599;DHT22;8918;52.092;5.232;2024-01-15T06:56:04;1.30;99.90
17599;DHT22;8918;52.092;5.232;2024-01-15T06:58:33;1.20;99.90
17599;DHT22;8918;52.092;5.232;2024-01-15T07:00:59;1.10;99.90
17599;DHT22;8918;52.092;5.232;2024-01-15T07:03:24;1.10;99.90
17599;DHT22;8918;52.092;5.232;2024-01-15T07:05:50;1.10;99.90
17599;DHT22;8918;52.092;5.232;2024-01-15T07:08:16;1.00;99.90
17599;DHT22;8918;52.092;5.232;2024-01-15T07:10:44;1.00;99.90
17599;DHT22;8918;52.092;5.232;2024-01-15T07:13:09;1.20;99.90
17599;DHT22;8918;52.092;5.232;2024-01-15T07:15:35;1.20;99.90
17599;DHT22;8918;52.092;5.232;2024-01-15T07:18:00;1.20;99.90
17599;DHT22;8918;52.092;5.232;2024-01-15T07:20:29;1.20;99.90
17599;DHT22;8918;52.092;5.232;2024-01-15T07:22:54;1.20;99.90
17599;DHT22;8918;52.092;5.232;2024-01-15T07:25:20;1.20;99.90
17599;DHT22;8918;52.092;5.232;2024-01-15T07:27:46;1.20;99.90
17599;DHT22;8918;52.092;5.232;2024-01-15T07:30:12;1.20;99.90
17599;DHT22;8918;52.092;5.232;2024-01-15T07:32:38;1.20;99.90
17599;DHT22;8918;52.092;5.232;2024-01-15T07:35:04;1.20;99.90
17599;DHT22;8918;52.092;5.232;2024-01-15T07:37:31;1.20;99.90
17599;DHT22;8918;52.092;5.232;2024-01-15T07:39:56;1.20;99.90
17599;DHT22;8918;52.092;5.232;2024-01-15T07:42:22;1.20;99.90
17599;DHT22;8918;52.092;5.232;2024-01-15T07:44:48;1.40;99.90
17599;DHT22;8918;52.092;5.232;2024-01-15T07:47:13;1.40;99.90
17599;DHT22;8918;52.092;5.232;2024-01-15T07:49:39;1.40;99.90
17599;DHT22;8918;52.092;5.232;2024-01-15T07:52:05;1.40;99.90
17599;DHT22;8918;52.092;5.232;2024-01-15T07:54:31;1.40;99.90
17599;DHT22;8918;52.092;5.232;2024-01-15T07:56:58;1.30;99.90
17599;DHT22;8918;52.092;5.232;2024-01-15T07:59:24;1.30;99.90
17599;DHT22;8918;52.092;5.232;2024-01-15T08:01:51;1.30;99.90
17599;DHT22;8918;52.092;5.232;2024-01-15T08:04:17;1.40;99.90
17599;DHT22;8918;52.092;5.232;2024-01-15T08:06:44;1.50;99.90
17599;DHT22;8918;52.092;5.232;2024-01-15T08:09:10;1.50;99.90
17599;DHT22;8918;52.092;5.232;2024-01-15T08:11:36;1.40;99.90
17599;DHT22;8918;52.092;5.232;2024-01-15T08:14:04;1.40;99.90
17599;DHT22;8918;52.092;5.232;2024-01-15T08:16:29;1.40;99.90
17599;DHT22;8918;52.092;5.232;2024-01-15T08:18:55;1.50;99.90
17599;DHT22;8918;52.092;5.232;2024-01-15T08:21:21;1.50;99.90
17599;DHT22;8918;52.092;5.232;2024-01-15T08:23:47;1.40;99.90
17599;DHT22;8918;52.092;5.232;2024-01-15T08:26:13;1.40;99.90
17599;DHT22;8918;52.092;5.232;2024-01-15T08:28:38;1.40;99.90
17599;DHT22;8918;52.092;5.232;2024-01-15T08:31:04;1.40;99.90
17599;DHT22;8918;52.092;5.232;2024-01-15T08:33:29;1.40;99.90
17599;DHT22;8918;52.092;5.232;2024-01-15T08:35:55;1.40;99.90
17599;DHT22;8918;52.092;5.232;2024-01-15T08:38:21;1.40;99.90
17599;DHT22;8918;52.092;5.232;2024-01-15T08:40:46;1.40;99.90
17599;DHT22;8918;52.092;5.232;2024-01-15T08:43:12;1.40;99.90
17599;DHT22;8918;52.092;5.232;2024-01-15T08:45:38;1.40;99.90
17599;DHT22;8918;52.092;5.232;2024-01-15T08:48:04;1.40;99.90
17599;DHT22;8918;52.092;5.232;2024-01-15T08:50:30;1.40;99.90
17599;DHT22;8918;52.092;5.232;2024-01-15T08:52:57;1.40;99.90
17599;DHT22;8918;52.092;5.232;2024-01-15T08:55:23;1.30;99.90
17599;DHT22;8918;52.092;5.232;2024-01-15T08:57:51;1.30;99.90
17599;DHT22;8918;52.092;5.232;2024-01-15T09:00:17;1.30;99.90
17599;DHT22;8918;52.092;5.232;2024-01-15T09:02:44;1.30;99.90
17599;DHT22;8918;52.092;5.232;2024-01-15T09:05:10;1.30;99.90
17599;DHT22;8918;52.092;5.232;2024-01-15T09:07:37;1.40;99.90
17599;DHT22;8918;52.092;5.232;2024-01-15T09:10:02;1.50;99.90
17599;DHT22;8918;52.092;5.232;2024-01-15T09:12:28;1.50;99.90
17599;DHT22;8918;52.092;5.232;2024-01-15T09:14:54;1.40;99.90
17599;DHT22;8918;52.092;5.232;2024-01-15T09:17:21;1.30;99.90
17599;DHT22;8918;52.092;5.232;2024-01-15T09:19:50;1.30;99.90
17599;DHT22;8918;52.092;5.232;2024-01-15T09:22:18;1.20;99.90
17599;DHT22;8918;52.092;5.232;2024-01-15T09:24:44;1.30;99.90
17599;DHT22;8918;52.092;5.232;2024-01-15T09:27:10;1.40;99.90
17599;DHT22;8918;52.092;5.232;2024-01-15T09:29:35;1.60;99.90
17599;DHT22;8918;52.092;5.232;2024-01-15T09:32:05;1.60;99.90
17599;DHT22;8918;52.092;5.232;2024-01-15T09:34:31;1.70;99.90
17599;DHT22;8918;52.092;5.232;2024-01-15T09:36:56;1.80;99.90
17599;DHT22;8918;52.092;5.232;2024-01-15T09:39:22;1.80;99.90
17599;DHT22;8918;52.092;5.232;2024-01-15T09:41:49;1.80;99.90
17599;DHT22;8918;52.092;5.232;2024-01-15T09:44:16;1.90;99.90
17599;DHT22;8918;52.092;5.232;2024-01-15T09:46:42;1.90;99.90
17599;DHT22;8918;52.092;5.232;2024-01-15T09:49:10;1.90;99.90
17599;DHT22;8918;52.092;5.232;2024-01-15T09:51:36;1.80;99.90
17599;DHT22;8918;52.092;5.232;2024-01-15T09:54:02;1.70;99.90
17599;DHT22;8918;52.092;5.232;2024-01-15T09:56:30;1.70;99.90
17599;DHT22;8918;52.092;5.232;2024-01-15T09:59:00;1.70;99.90
17599;DHT22;8918;52.092;5.232;2024-01-15T10:01:26;1.70;99.90
17599;DHT22;8918;52.092;5.232;2024-01-15T10:03:52;2.00;99.90
17599;DHT22;8918;52.092;5.232;2024-01-15T10:06:19;2.70;99.90
17599;DHT22;8918;52.092;5.232;2024-01-15T10:08:49;3.40;99.90
17599;DHT22;8918;52.092;5.232;2024-01-15T10:11:15;4.20;99.90
17599;DHT22;8918;52.092;5.232;2024-01-15T10:13:44;5.00;99.90
17599;DHT22;8918;52.092;5.232;2024-01-15T10:16:10;5.60;99.90
17599;DHT22;8918;52.092;5.232;2024-01-15T10:18:36;5.20;99.90
17599;DHT22;8918;52.092;5.232;2024-01-15T10:21:03;5.10;99.90
17599;DHT22;8918;52.092;5.232;2024-01-15T10:23:30;5.30;99.90
17599;DHT22;8918;52.092;5.232;2024-01-15T10:25:57;5.50;99.90
17599;DHT22;8918;52.092;5.232;2024-01-15T10:28:28;6.00;99.90
17599;DHT22;8918;52.092;5.232;2024-01-15T10:30:57;6.10;99.90
17599;DHT22;8918;52.092;5.232;2024-01-15T10:33:24;6.10;99.90
17599;DHT22;8918;52.092;5.232;2024-01-15T10:35:54;5.50;99.90
17599;DHT22;8918;52.092;5.232;2024-01-15T10:38:21;5.00;99.90
17599;DHT22;8918;52.092;5.232;2024-01-15T10:40:50;4.30;99.90
17599;DHT22;8918;52.092;5.232;2024-01-15T10:43:16;3.80;99.90
17599;DHT22;8918;52.092;5.232;2024-01-15T10:45:44;3.40;99.90
17599;DHT22;8918;52.092;5.232;2024-01-15T10:48:10;3.10;99.90
17599;DHT22;8918;52.092;5.232;2024-01-15T10:50:36;2.90;99.90
17599;DHT22;8918;52.092;5.232;2024-01-15T10:53:03;3.00;99.90
17599;DHT22;8918;52.092;5.232;2024-01-15T10:55:30;3.20;99.90
17599;DHT22;8918;52.092;5.232;2024-01-15T10:57:57;3.20;99.90
17599;DHT22;8918;52.092;5.232;2024-01-15T11:00:23;3.20;99.90
17599;DHT22;8918;52.092;5.232;2024-01-15T11:02:50;3.10;99.90
17599;DHT22;8918;52.092;5.232;2024-01-15T11:05:16;3.00;99.90
17599;DHT22;8918;52.092;5.232;2024-01-15T11:07:43;3.00;99.90
17599;DHT22;8918;52.092;5.232;2024-01-15T11:13:04;2.90;99.90
17599;DHT22;8918;52.092;5.232;2024-01-15T11:15:30;2.90;99.90
17599;DHT22;8918;52.092;5.232;2024-01-15T11:18:01;2.90;99.90
17599;DHT22;8918;52.092;5.232;2024-01-15T11:20:27;2.80;99.90
17599;DHT22;8918;52.092;5.232;2024-01-15T11:22:53;2.70;99.90
17599;DHT22;8918;52.092;5.232;2024-01-15T11:25:19;2.70;99.90
17599;DHT22;8918;52.092;5.232;2024-01-15T11:27:46;2.70;99.90
17599;DHT22;8918;52.092;5.232;2024-01-15T11:30:18;2.70;99.90
17599;DHT22;8918;52.092;5.232;2024-01-15T11:32:47;2.80;99.90
17599;DHT22;8918;52.092;5.232;2024-01-15T11:35:13;2.80;99.90
17599;DHT22;8918;52.092;5.232;2024-01-15T11:40:22;2.80;99.90
17599;DHT22;8918;52.092;5.232;2024-01-15T11:42:48;2.70;99.90
17599;DHT22;8918;52.092;5.232;2024-01-15T11:45:19;2.60;99.90
17599;DHT22;8918;52.092;5.232;2024-01-15T11:48:24;2.60;99.90
17599;DHT22;8918;52.092;5.232;2024-01-15T11:51:00;2.60;99.90
17599;DHT22;8918;52.092;5.232;2024-01-15T11:53:49;2.50;99.90
17599;DHT22;8918;52.092;5.232;2024-01-15T11:56:19;2.50;99.90
17599;DHT22;8918;52.092;5.232;2024-01-15T11:58:47;2.40;99.90
17599;DHT22;8918;52.092;5.232;2024-01-15T12:01:13;2.40;99.90
17599;DHT22;8918;52.092;5.232;2024-01-15T12:03:39;2.40;99.90
17599;DHT22;8918;52.092;5.232;2024-01-15T12:06:08;2.40;99.90
17599;DHT22;8918;52.092;5.232;2024-01-15T12:08:35;2.40;99.90
17599;DHT22;8918;52.092;5.232;2024-01-15T12:11:06;2.60;99.90
17599;DHT22;8918;52.092;5.232;2024-01-15T12:13:36;3.10;99.90
17599;DHT22;8918;52.092;5.232;2024-01-15T12:16:03;3.50;99.90
17599;DHT22;8918;52.092;5.232;2024-01-15T12:18:29;3.90;99.90
17599;DHT22;8918;52.092;5.232;2024-01-15T12:20:55;4.30;99.90
17599;DHT22;8918;52.092;5.232;2024-01-15T12:23:20;5.00;99.90
17599;DHT22;8918;52.092;5.232;2024-01-15T12:25:46;5.10;99.90
17599;DHT22;8918;52.092;5.232;2024-01-15T12:28:12;4.90;99.90
17599;DHT22;8918;52.092;5.232;2024-01-15T12:30:39;4.70;99.90
17599;DHT22;8918;52.092;5.232;2024-01-15T12:33:07;4.30;99.90
17599;DHT22;8918;52.092;5.232;2024-01-15T12:35:34;4.10;99.90
17599;DHT22;8918;52.092;5.232;2024-01-15T12:38:00;3.70;99.90
17599;DHT22;8918;52.092;5.232;2024-01-15T12:40:30;3.50;99.90
17599;DHT22;8918;52.092;5.232;2024-01-15T12:42:56;3.50;99.90
17599;DHT22;8918;52.092;5.232;2024-01-15T12:45:22;3.90;99.90
17599;DHT22;8918;52.092;5.232;2024-01-15T12:47:47;4.50;99.90
17599;DHT22;8918;52.092;5.232;2024-01-15T12:50:13;4.60;99.90
17599;DHT22;8918;52.092;5.232;2024-01-15T12:52:42;4.50;99.90
17599;DHT22;8918;52.092;5.232;2024-01-15T12:55:09;4.30;99.90
17599;DHT22;8918;52.092;5.232;2024-01-15T12:57:35;3.80;99.90
17599;DHT22;8918;52.092;5.232;2024-01-15T13:00:01;3.40;99.90
17599;DHT22;8918;52.092;5.232;2024-01-15T13:02:28;3.10;99.90
17599;DHT22;8918;52.092;5.232;2024-01-15T13:04:53;2.90;99.90
17599;DHT22;8918;52.092;5.232;2024-01-15T13:07:20;2.60;99.90
17599;DHT22;8918;52.092;5.232;2024-01-15T13:09:46;2.50;99.90
17599;DHT22;8918;52.092;5.232;2024-01-15T13:12:11;2.50;99.90
17599;DHT22;8918;52.092;5.232;2024-01-15T13:14:37;2.40;99.90
17599;DHT22;8918;52.092;5.232;2024-01-15T13:17:03;2.70;99.90
17599;DHT22;8918;52.092;5.232;2024-01-15T13:19:32;3.00;99.90
17599;DHT22;8918;52.092;5.232;2024-01-15T13:21:59;3.40;99.90
17599;DHT22;8918;52.092;5.232;2024-01-15T13:24:25;4.00;99.90
17599;DHT22;8918;52.092;5.232;2024-01-15T13:26:51;4.60;99.90
17599;DHT22;8918;52.092;5.232;2024-01-15T13:29:16;5.00;99.90
17599;DHT22;8918;52.092;5.232;2024-01-15T13:31:42;4.90;99.90
17599;DHT22;8918;52.092;5.232;2024-01-15T13:34:08;4.80;99.90
17599;DHT22;8918;52.092;5.232;2024-01-15T13:36:34;4.40;99.90
17599;DHT22;8918;52.092;5.232;2024-01-15T13:39:00;4.20;99.90
17599;DHT22;8918;52.092;5.232;2024-01-15T13:41:25;4.00;99.90
17599;DHT22;8918;52.092;5.232;2024-01-15T13:43:53;3.70;99.90
17599;DHT22;8918;52.092;5.232;2024-01-15T13:46:20;3.50;99.90
17599;DHT22;8918;52.092;5.232;2024-01-15T13:48:47;3.30;99.90
17599;DHT22;8918;52.092;5.232;2024-01-15T13:51:12;3.20;99.90
17599;DHT22;8918;52.092;5.232;2024-01-15T13:53:38;3.10;99.90
17599;DHT22;8918;52.092;5.232;2024-01-15T13:56:05;3.00;99.90
17599;DHT22;8918;52.092;5.232;2024-01-15T13:58:31;2.90;99.90
17599;DHT22;8918;52.092;5.232;2024-01-15T14:00:58;2.80;99.90
17599;DHT22;8918;52.092;5.232;2024-01-15T14:03:24;2.90;99.90
17599;DHT22;8918;52.092;5.232;2024-01-15T14:05:51;3.00;99.90
17599;DHT22;8918;52.092;5.232;2024-01-15T14:08:16;3.30;99.90
17599;DHT22;8918;52.092;5.232;2024-01-15T14:10:42;3.70;99.90
17599;DHT22;8918;52.092;5.232;2024-01-15T14:13:08;3.90;99.90
17599;DHT22;8918;52.092;5.232;2024-01-15T14:15:34;4.00;99.90
17599;DHT22;8918;52.092;5.232;2024-01-15T14:18:00;3.90;99.90
17599;DHT22;8918;52.092;5.232;2024-01-15T14:20:29;3.70;99.90
17599;DHT22;8918;52.092;5.232;2024-01-15T14:22:55;3.60;99.90
17599;DHT22;8918;52.092;5.232;2024-01-15T14:25:21;3.50;99.90
17599;DHT22;8918;52.092;5.232;2024-01-15T14:27:47;3.40;99.90
17599;DHT22;8918;52.092;5.232;2024-01-15T14:30:13;3.30;99.90
17599;DHT22;8918;52.092;5.232;2024-01-15T14:32:41;3.20;99.90
17599;DHT22;8918;52.092;5.232;2024-01-15T14:35:07;3.20;99.90
17599;DHT22;8918;52.092;5.232;2024-01-15T14:37:36;3.20;99.90
17599;DHT22;8918;52.092;5.232;2024-01-15T14:40:02;3.20;99.90
17599;DHT22;8918;52.092;5.232;2024-01-15T14:42:29;3.30;99.90
17599;DHT22;8918;52.092;5.232;2024-01-15T14:44:55;3.40;99.90
17599;DHT22;8918;52.092;5.232;2024-01-15T14:47:24;3.50;99.90
17599;DHT22;8918;52.092;5.232;2024-01-15T14:49:50;3.50;99.90
17599;DHT22;8918;52.092;5.232;2024-01-15T14:52:16;3.40;99.90
17599;DHT22;8918;52.092;5.232;2024-01-15T14:54:42;3.20;99.90
17599;DHT22;8918;52.092;5.232;2024-01-15T14:57:07;3.10;99.90
17599;DHT22;8918;52.092;5.232;2024-01-15T14:59:33;2.90;99.90
17599;DHT22;8918;52.092;5.232;2024-01-15T15:01:59;2.90;99.90
17599;DHT22;8918;52.092;5.232;2024-01-15T15:04:27;2.90;99.90
17599;DHT22;8918;52.092;5.232;2024-01-15T15:06:54;2.80;99.90
17599;DHT22;8918;52.092;5.232;2024-01-15T15:09:19;2.80;99.90
17599;DHT22;8918;52.092;5.232;2024-01-15T15:11:45;2.90;99.90
17599;DHT22;8918;52.092;5.232;2024-01-15T15:14:10;2.90;99.90
17599;DHT22;8918;52.092;5.232;2024-01-15T15:16:36;3.00;99.90
17599;DHT22;8918;52.092;5.232;2024-01-15T15:19:02;3.00;99.90
17599;DHT22;8918;52.092;5.232;2024-01-15T15:21:27;3.00;99.90
17599;DHT22;8918;52.092;5.232;2024-01-15T15:23:56;3.00;99.90
17599;DHT22;8918;52.092;5.232;2024-01-15T15:26:22;3.00;99.90
17599;DHT22;8918;52.092;5.232;2024-01-15T15:28:48;2.90;99.90
17599;DHT22;8918;52.092;5.232;2024-01-15T15:31:14;2.90;99.90
17599;DHT22;8918;52.092;5.232;2024-01-15T15:33:40;2.90;99.90
17599;DHT22;8918;52.092;5.232;2024-01-15T15:36:05;2.90;99.90
17599;DHT22;8918;52.092;5.232;2024-01-15T15:38:32;2.80;99.90
17599;DHT22;8918;52.092;5.232;2024-01-15T15:40:58;2.80;99.90
17599;DHT22;8918;52.092;5.232;2024-01-15T15:43:25;2.80;99.90
17599;DHT22;8918;52.092;5.232;2024-01-15T15:45:50;2.80;99.90
17599;DHT22;8918;52.092;5.232;2024-01-15T15:48:16;2.80;99.90
17599;DHT22;8918;52.092;5.232;2024-01-15T15:50:42;2.80;99.90
17599;DHT22;8918;52.092;5.232;2024-01-15T15:53:07;2.80;99.90
17599;DHT22;8918;52.092;5.232;2024-01-15T15:55:33;2.80;99.90
17599;DHT22;8918;52.092;5.232;2024-01-15T15:58:02;2.90;99.90
17599;DHT22;8918;52.092;5.232;2024-01-15T16:00:29;2.80;99.90
17599;DHT22;8918;52.092;5.232;2024-01-15T16:02:57;2.70;99.90